Weather observations for the past three days for
Storm Lake
Metric (Imperial)
Date Time (cdt) Wind (kph) Vis. (km) Weather Sky Cond. Temperature (ºC) Relative Humidity Wind Chill (°C) Heat Index (°C) Pressure Precipitation (cm)
Air Dwpt 6 hour altimeter (cm) sea level (mb) 1 hr 3 hr 6 hr
Max. Min.
10 06:35 W 11 16.09 Fair CLR 4 -5 52% 2 76.5 0.0
10 06:15 W 15 16.09 Fair CLR 5 -5 49% 2 76.5 0.0
10 05:55 W 13 16.09 Fair CLR 4 -5 52% 1 76.48 0.0
10 05:35 W 13 16.09 Fair CLR 5 -5 49% 2 76.5 0.0
10 05:15 SW 6 16.09 Fair CLR 5 -5 49% 76.48 0.0
10 04:55 W 7 16.09 Fair CLR 4 -5 52% 2 76.48 0.0
10 04:35 Calm 16.09 Fair CLR 7 -5 43% 76.48 0.0
10 04:15 N 6 16.09 Fair CLR 8 -5 40% 76.48 0.0
10 03:55 NE 6 16.09 Fair CLR 8 -5 40% 76.45 0.0
10 03:35 N 9 16.09 Fair CLR 8 -5 40% 7 76.43 0.0
10 03:15 NE 6 16.09 Fair CLR 7 -6 39% 76.43 0.0
10 02:55 N 9 16.09 Fair CLR 8 -6 37% 7 76.4 0.0
10 02:35 N 7 16.09 Fair CLR 8 -6 37% 7 76.4 0.0
10 02:15 N 11 16.09 Fair CLR 7 -6 39% 5 76.38 0.0
10 01:55 N 11 16.09 Fair CLR 8 -6 37% 6 76.38 0.0
10 01:35 N 11 16.09 Fair CLR 6 -6 42% 4 76.35 0.0
10 01:15 N 13 16.09 Fair CLR 7 -6 39% 5 76.33 0.0
10 00:55 N 13 16.09 Fair CLR 6 -6 42% 4 76.33 0.0
10 00:35 N 15 16.09 Fair CLR 7 -6 39% 5 76.33 0.0
10 00:15 N 15 16.09 Fair CLR 6 -5 46% 3 76.3 0.0
09 23:55 N 13 16.09 Fair CLR 7 -5 43% 5 76.3 0.0
09 23:35 N 15 16.09 Fair CLR 8 -5 40% 6 76.28 0.0
09 23:15 N 15 16.09 Fair CLR 8 -5 40% 6 76.28 0.0
09 22:55 N 17 16.09 Fair CLR 7 -6 39% 4 76.28 0.0
09 22:35 N 17 16.09 Fair CLR 8 -6 37% 6 76.25 0.0
09 22:15 N 15 16.09 Fair CLR 9 -5 37% 7 76.23 0.0
09 21:55 N 13 16.09 Fair CLR 10 -5 35% 8 76.2 0.0
09 21:35 N 15 16.09 Fair CLR 11 -5 32% 76.17 0.0
09 21:15 N 17 16.09 Fair CLR 11 -5 32% 76.15 0.0
09 20:55 N 20 16.09 Fair CLR 12 -5 30% 76.12 0.0
09 20:35 N 20 16.09 Fair CLR 13 -5 28% 76.07 0.0
09 20:15 N 24 16.09 Fair CLR 14 -5 27% 76.07 0.0
09 19:55 N 24 16.09 Fair CLR 15 -5 25% 76.05 0.0
09 19:35 N 22 G 35 16.09 Fair CLR 16 -5 23% 76.02 0.0
09 19:15 N 28 16.09 Fair CLR 16 -5 23% 76 0.0
09 18:55 N 30 16.09 Fair CLR 17 -5 22% 75.97 0.0
09 18:35 N 31 16.09 Fair CLR 17 -4 24% 75.97 0.0
09 18:15 N 26 G 41 16.09 Fair CLR 17 -4 24% 75.95 0.0
09 17:55 N 28 G 46 16.09 Fair CLR 18 -4 22% 75.92 0.0
09 17:35 N 33 G 44 16.09 Fair and Breezy CLR 18 -4 22% 75.9 0.0
09 17:15 N 28 G 39 16.09 Fair CLR 18 -3 24% 75.9 0.0
09 16:55 N 24 G 43 16.09 Fair CLR 18 -3 24% 75.87 0.0
09 16:35 N 26 G 37 16.09 Fair CLR 19 -3 22% 75.84 0.0
09 16:15 NW 31 G 44 16.09 Fair CLR 19 -3 22% 75.84 0.0
09 15:55 N 33 16.09 Fair and Breezy CLR 19 -2 24% 75.82 0.0
09 15:35 N 31 16.09 Fair CLR 19 -3 22% 75.82 0.0
09 15:15 N 26 G 41 16.09 Fair CLR 18 -2 26% 75.82 0.0
09 14:55 N 31 G 46 16.09 Fair CLR 19 -2 24% 75.82 0.0
09 14:35 N 22 G 43 16.09 Fair CLR 19 -2 24% 75.79 0.0
09 14:15 N 26 G 43 16.09 Fair CLR 18 -1 28% 75.79 0.0
09 13:55 N 28 G 44 16.09 Fair CLR 19 1 30% 75.77 0.0
09 13:35 N 30 G 41 16.09 Fair CLR 18 2 34% 75.77 0.0
09 13:15 N 30 G 44 16.09 Fair CLR 18 3 37% 75.74 0.0
09 12:55 N 31 G 43 16.09 Fair CLR 18 4 40% 75.77 0.0
09 12:35 N 22 G 37 16.09 Fair CLR 17 6 49% 75.77 0.0
09 12:15 N 19 G 37 16.09 A Few Clouds FEW110 15 6 55% 75.79 0.0
09 11:55 N 28 G 37 16.09 A Few Clouds FEW090 FEW110 16 5 48% 75.77 0.0
09 11:35 N 26 16.09 Partly Cloudy SCT095 15 6 55% 75.74 0.0
09 11:15 N 28 16.09 Fair CLR 15 5 51% 75.69 0.0
09 10:55 N 20 G 31 16.09 A Few Clouds FEW100 16 5 48% 75.69 0.0
09 10:35 N 22 G 31 16.09 Fair CLR 16 5 48% 75.67 0.0
09 10:15 N 22 G 41 16.09 Fair CLR 16 4 45% 75.67 0.0
09 09:55 NW 11 16.09 Fair CLR 16 4 45% 75.67 0.0
09 09:35 Calm 16.09 Fair CLR 15 4 48% 75.64 0.0
09 09:15 N 7 16.09 Fair CLR 14 4 51% 75.62 0.0
09 08:55 N 15 16.09 Fair CLR 14 3 48% 75.64 0.0
09 08:35 N 17 16.09 Fair CLR 13 2 47% 75.64 0.0
09 08:15 N 19 16.09 Fair CLR 13 0 41% 75.64 0.0
09 07:55 NW 22 16.09 Fair CLR 13 -1 38% 75.64 0.0
09 07:35 NW 22 G 31 16.09 Fair CLR 13 -2 36% 75.62 0.0
09 07:15 NW 28 G 48 16.09 Fair CLR 12 -2 38% 75.59 0.0
09 06:55 W 13 16.09 Fair CLR 8 -1 53% 6 75.46 0.0
09 06:35 SW 11 16.09 Fair CLR 7 -2 53% 5 75.44 0.0
09 06:15 SW 13 16.09 Fair CLR 7 -2 53% 5 75.44 0.0
09 05:55 SW 13 16.09 Fair CLR 7 -2 53% 5 75.41 0.0
09 05:35 SW 15 16.09 Fair CLR 7 -3 49% 5 75.41 0.0
09 05:15 SW 13 16.09 Fair CLR 7 -3 49% 5 75.41 0.0
09 04:55 SW 13 16.09 Fair CLR 7 -3 49% 5 75.39 0.0
09 04:35 SW 15 16.09 Fair CLR 8 -3 46% 6 75.41 0.0
09 04:15 SW 15 16.09 Fair CLR 9 -3 43% 7 75.41 0.0
09 03:55 SW 15 16.09 Fair CLR 8 -3 46% 6 75.41 0.0
09 03:35 W 13 16.09 Fair CLR 10 -3 40% 8 75.41 0.0
09 03:15 W 11 16.09 Fair CLR 9 -2 46% 8 75.44 0.0
09 02:55 W 13 16.09 Fair CLR 10 -2 43% 8 75.44 0.0
09 02:35 W 13 16.09 Fair CLR 10 -2 43% 8 75.46 0.0
09 02:15 NW 11 16.09 Fair CLR 12 -3 35% 75.46 0.0
09 01:55 NW 13 16.09 Fair CLR 10 -2 43% 8 75.49 0.0
09 01:35 W 15 16.09 Fair CLR 10 -2 43% 8 75.49 0.0
09 01:15 NW 13 16.09 Fair CLR 12 -2 38% 75.51 0.0
09 00:55 NW 11 16.09 Partly Cloudy SCT055 13 -3 33% 75.51 0.0
09 00:35 NW 11 16.09 Partly Cloudy SCT055 SCT065 13 -3 33% 75.51 0.0
09 00:15 NW 11 16.09 A Few Clouds FEW055 FEW065 14 -3 31% 75.51 0.0
08 23:55 NW 15 16.09 A Few Clouds FEW050 13 -3 33% 75.51 0.0
08 23:35 N 15 16.09 A Few Clouds FEW050 13 -2 36% 75.51 0.0
08 23:15 N 15 16.09 Fair CLR 13 -1 38% 75.51 0.0
08 22:55 N 13 16.09 A Few Clouds FEW050 14 0 39% 75.51 0.0
08 22:35 N 17 16.09 Fair CLR 15 0 36% 75.49 0.0
08 22:15 N 20 16.09 Fair CLR 15 0 36% 75.46 0.0
08 21:55 N 13 16.09 Fair CLR 17 -1 30% 75.41 0.0
08 21:35 N 11 16.09 A Few Clouds FEW110 17 0 32% 75.39 0.0
08 21:15 NW 13 16.09 Partly Cloudy SCT110 18 0 30% 75.39 0.0
08 20:55 NW 17 16.09 Partly Cloudy SCT110 19 -1 26% 75.36 0.0
08 20:35 NW 19 G 30 16.09 Partly Cloudy SCT120 20 -2 23% 75.34 0.0
08 20:15 NW 15 G 26 16.09 Fair CLR 20 -3 21% 75.31 0.0
08 19:55 NW 20 G 33 16.09 Fair CLR 22 -3 19% 75.31 0.0
08 19:35 NW 30 G 39 16.09 Fair CLR 22 -4 17% 75.31 0.0
08 19:15 NW 24 G 35 16.09 Fair CLR 23 -4 16% 75.31 0.0
08 18:55 NW 35 16.09 Fair and Breezy CLR 24 -4 15% 24 75.31 0.0
08 18:35 NW 37 G 48 16.09 Fair and Breezy CLR 24 -3 16% 24 75.31 0.0
08 17:55 W 37 G 48 16.09 Fair and Breezy CLR 25 -3 15% 25 75.31 0.0
08 17:35 NW 31 16.09 Fair CLR 25 -2 17% 25 75.31 0.0
08 17:15 W 37 16.09 A Few Clouds and Breezy FEW100 24 -3 16% 24 75.31 0.0
08 16:55 W 26 G 46 16.09 Fair CLR 24 -2 18% 24 75.31 0.0
08 16:35 W 19 G 39 16.09 A Few Clouds FEW100 24 -2 18% 24 75.34 0.0
08 16:15 W 33 G 44 16.09 A Few Clouds and Breezy FEW100 25 -2 17% 25 75.36 0.0
08 15:55 W 30 G 48 16.09 A Few Clouds FEW100 25 -2 17% 25 75.39 0.0
08 15:35 W 35 16.09 Partly Cloudy and Breezy SCT100 SCT120 24 -2 18% 24 75.41 0.0
08 15:15 W 30 G 43 16.09 A Few Clouds FEW100 24 -2 18% 24 75.44 0.0
08 14:35 SW 20 G 52 16.09 A Few Clouds FEW100 23 -3 17% 75.49 0.0
08 14:15 SW 24 G 39 16.09 A Few Clouds FEW100 23 -3 17% 75.49 0.0
08 13:55 W 24 G 37 16.09 Partly Cloudy SCT100 23 -4 16% 75.51 0.0
08 13:35 Vrbl 9 G 30 16.09 Fair CLR 23 -4 16% 75.54 0.0
08 13:15 Vrbl 11 G 28 16.09 Fair CLR 22 -5 16% 75.54 0.0
08 12:35 NW 19 G 28 16.09 Fair CLR 21 -5 17% 75.59 0.0
08 12:15 NW 20 G 33 16.09 Fair CLR 21 -5 17% 75.62 0.0
08 11:55 W 13 G 26 16.09 Fair CLR 21 -6 16% 75.64 0.0
08 11:35 Vrbl 11 G 30 16.09 Fair CLR 20 -6 17% 75.64 0.0
08 11:15 N 11 G 24 16.09 Fair CLR 20 -6 17% 75.64 0.0
08 10:55 W 19 14.48 Fair CLR 20 -6 17% 75.67 0.0
08 10:35 W 17 G 28 16.09 Fair CLR 19 -6 18% 75.67 0.0
08 10:15 W 22 16.09 Fair CLR 19 -6 18% 75.69 0.0
08 09:55 W 22 16.09 Fair CLR 18 -4 22% 75.69 0.0
08 09:35 W 17 16.09 Fair CLR 18 -5 21% 75.69 0.0
08 09:15 W 17 16.09 Fair CLR 17 -4 24% 75.69 0.0
08 08:35 SW 15 16.09 Fair CLR 15 -4 27% 75.72 0.0
08 08:15 W 13 16.09 Fair CLR 14 -4 29% 75.72 0.0
08 07:55 SW 9 14.48 Fair CLR 11 -4 35% 75.72 0.0
08 07:35 SW 11 16.09 Fair CLR 11 -4 35% 75.74 0.0
08 07:15 SW 9 16.09 Fair CLR 10 -4 37% 9 75.72 0.0
08 06:55 SW 9 16.09 Fair CLR 10 -5 35% 9 75.69 0.0
08 06:35 S 9 16.09 Partly Cloudy SCT120 8 -6 37% 7 75.69 0.0
08 06:15 S 7 16.09 Mostly Cloudy BKN120 6 -6 42% 5 75.69 0.0
08 05:55 S 7 16.09 A Few Clouds FEW110 9 -6 34% 8 75.69 0.0
08 05:35 S 9 16.09 Partly Cloudy SCT120 9 -7 32% 8 75.69 0.0
08 05:15 S 9 16.09 A Few Clouds FEW120 9 -7 32% 8 75.72 0.0
08 04:55 SW 11 16.09 Fair CLR 9 -7 32% 8 75.72 0.0
08 04:35 SW 9 16.09 Fair CLR 9 -7 32% 8 75.72 0.0
08 04:15 S 11 16.09 Fair CLR 9 -7 32% 8 75.72 0.0
08 03:55 S 7 16.09 Fair CLR 7 -7 37% 6 75.72 0.0
08 03:35 S 7 16.09 Fair CLR 9 -8 29% 8 75.74 0.0
08 03:15 Calm 16.09 Fair CLR 9 -7 32% 75.74 0.0
08 02:55 S 7 16.09 Fair CLR 9 -7 32% 8 75.74 0.0
08 02:35 S 7 16.09 A Few Clouds FEW035 8 -7 34% 7 75.74 0.0
08 02:15 S 11 16.09 A Few Clouds FEW033 FEW039 11 -8 26% 75.77 0.0
08 01:55 S 13 16.09 A Few Clouds FEW039 11 -8 26% 75.77 0.0
08 01:35 S 11 16.09 Fair CLR 10 -7 30% 9 75.77 0.0
08 01:15 S 11 16.09 Fair CLR 10 -7 30% 9 75.77 0.0
08 00:55 SE 7 16.09 A Few Clouds FEW043 10 -7 30% 9 75.77 0.0
08 00:35 SE 6 16.09 Fair CLR 11 -6 30% 75.77 0.0
08 00:15 E 6 16.09 Fair CLR 11 -6 30% 75.77 0.0
07 23:55 SE 6 16.09 Fair CLR 11 -4 35% 75.77 0.0
07 23:35 Calm 16.09 Fair CLR 12 -5 30% 75.79 0.0
07 23:15 Calm 16.09 Fair CLR 12 -3 35% 75.79 0.0
07 22:55 Calm 16.09 Fair CLR 12 -6 28% 75.79 0.0
07 22:35 Calm 16.09 Fair CLR 12 -8 24% 75.79 0.0
07 22:15 NE 6 16.09 Fair CLR 13 -8 23% 75.79 0.0
07 21:55 NE 6 16.09 Fair CLR 14 -8 21% 75.79 0.0
07 21:35 N 7 16.09 Fair CLR 13 -8 23% 75.79 0.0
07 21:15 N 7 16.09 Fair CLR 14 -8 21% 75.77 0.0
07 20:55 N 9 16.09 Fair CLR 14 -8 21% 75.77 0.0
07 20:35 NW 11 16.09 Fair CLR 14 -8 21% 75.74 0.0
07 20:15 NW 11 16.09 Fair CLR 15 -8 20% 75.74 0.0
07 19:55 NW 9 16.09 Fair CLR 16 -8 19% 75.72 0.0
07 19:35 NW 15 16.09 Fair CLR 17 -8 17% 75.69 0.0
07 19:15 NW 13 G 28 16.09 Fair CLR 17 -8 17% 75.69 0.0
07 18:55 NW 15 16.09 Fair CLR 18 -8 16% 75.69 0.0
07 18:35 W 15 16.09 Fair CLR 18 -8 16% 75.69 0.0
07 18:15 W 19 16.09 Fair CLR 18 -7 18% 75.72 0.0
07 17:55 W 17 G 28 16.09 Fair CLR 18 -7 18% 75.72 0.0
07 17:35 W 15 G 24 16.09 Fair CLR 18 -7 18% 75.72 0.0
07 17:15 NW 15 G 30 16.09 Fair CLR 18 -7 18% 75.72 0.0
07 16:55 NE 9 G 30 16.09 Fair CLR 18 -7 18% 75.72 0.0
07 16:35 NW 20 16.09 Fair CLR 18 -7 18% 75.72 0.0
07 16:15 Vrbl 7 G 24 16.09 Fair CLR 18 -7 18% 75.72 0.0
07 15:55 NE 15 16.09 Fair CLR 18 -6 19% 75.74 0.0
07 15:35 N 22 16.09 Fair CLR 17 -6 20% 75.74 0.0
07 15:15 Vrbl 11 G 22 16.09 Fair CLR 18 -7 18% 75.77 0.0
07 14:55 NW 19 G 31 16.09 Fair CLR 18 -7 18% 75.77 0.0
07 14:35 Vrbl 6 G 26 16.09 Fair CLR 17 -6 20% 75.79 0.0
07 14:15 E 15 G 26 16.09 Fair CLR 16 -6 22% 75.79 0.0
07 13:55 NE 13 G 26 16.09 Fair CLR 17 -6 20% 75.79 0.0
07 13:35 NE 22 16.09 A Few Clouds FEW090 17 -6 20% 75.79 0.0
07 13:15 N 9 G 20 16.09 Fair CLR 16 -6 22% 75.82 0.0
07 12:55 NE 15 G 28 16.09 Fair CLR 16 -5 23% 75.82 0.0
07 12:35 N 9 G 22 16.09 Fair CLR 16 -5 23% 75.84 0.0
07 12:15 NE 15 16.09 Fair CLR 15 -5 25% 75.84 0.0
07 11:55 Calm 16.09 Fair CLR 14 -4 29% 75.87 0.0
07 11:35 Vrbl 9 16.09 Fair CLR 14 -3 31% 75.87 0.0
07 11:15 NE 11 16.09 Fair CLR 14 -2 33% 75.87 0.0
07 10:55 E 13 16.09 Fair CLR 13 -2 36% 75.87 0.0
07 10:35 Vrbl 7 16.09 Fair CLR 12 -2 38% 75.87 0.0
07 10:15 Vrbl 9 16.09 Fair CLR 11 -2 41% 75.87 0.0
07 09:55 NE 11 16.09 Fair CLR 11 -3 38% 75.9 0.0
07 09:35 N 15 16.09 Fair CLR 10 -2 43% 8 75.9 0.0
07 09:15 NE 11 16.09 Fair CLR 10 -3 40% 9 75.9 0.0
07 08:55 NE 11 16.09 Fair CLR 10 -3 40% 9 75.87 0.0
07 08:35 NE 17 16.09 Fair CLR 9 -3 43% 7 75.87 0.0
07 08:15 SW 20 16.09 Fair CLR 10 -4 37% 8 75.84 0.0
07 07:55 S 15 16.09 Fair CLR 10 -4 37% 8 75.84 0.0
07 07:35 S 13 16.09 Fair CLR 9 -4 40% 7 75.84 0.0
07 07:15 SW 11 16.09 Fair CLR 7 -5 43% 5 75.87 0.0
07 06:55 SW 22 16.09 A Few Clouds FEW065 FEW120 7 -5 43% 4 75.84 0.0
Date Time (cdt) Wind (kph) Vis. (km) Weather Sky Cond. Air Dwpt Max. Min. Relative Humidity Wind Chill (°C) Heat Index (°C) altimeter (cm) sea level (mb) 1 hr 3 hr 6 hr
6 hour
Temperature (ºC) Pressure Precipitation (cm)